Mestre Silva — CUFZ5 — position and weather

sailwx.info

Track history (hours):
 
Tides and Currents Weather Stations Pressure Air Temp Water Temp Dewpoint Dewpoint Depression Visibility Wind Speed Wind Dir Waves Ship Positions

Mestre Silva

Last reported at 2017-Dec-14 04:13 UTC. Time now 2017-Dec-15 10:24 UTC.
Position N 41°11' W 008°42'.

Length 12 m.

Type: Fishing. MMSI: 263420860.

Date/timePositionNaut miles runAvg speedWind from/ knotsBaromVisibWave heightAir tempDewpointWater temp
2017-Dec-14 04:13N 41°11' W 008°42'0 0.4
2017-Dec-14 04:00N 41°11' W 008°42'6 0.7
2017-Dec-13 19:29N 41°05' W 008°41'3 5.3
2017-Dec-13 19:00N 41°08' W 008°42'3 5.1
2017-Dec-13 18:30N 41°10' W 008°42'1 1.3
2017-Dec-13 18:00N 41°11' W 008°42'0 0.0
2017-Dec-13 17:30N 41°11' W 008°42'0 0.0
2017-Dec-13 17:00N 41°11' W 008°42'0 0.0
2017-Dec-13 16:30N 41°11' W 008°42'0 0.0
2017-Dec-13 16:00N 41°11' W 008°42'0 0.0
2017-Dec-13 15:30N 41°11' W 008°42'0 0.0
2017-Dec-13 15:00N 41°11' W 008°42'0 0.0
2017-Dec-13 14:30N 41°11' W 008°42'0 0.0
2017-Dec-13 14:00N 41°11' W 008°42'0 0.0
2017-Dec-13 13:30N 41°11' W 008°42'0 0.1
2017-Dec-13 13:00N 41°11' W 008°42'3 5.3
2017-Dec-13 12:30N 41°08' W 008°42'4 7.2
2017-Dec-13 12:00N 41°05' W 008°41'3 0.8
2017-Dec-13 08:40N 41°02' W 008°42'0 1.3
2017-Dec-13 08:31N 41°02' W 008°42'1 1.2
2017-Dec-13 08:00N 41°03' W 008°42'1 1.3
2017-Dec-13 07:31N 41°02' W 008°42'0 0.1
2017-Dec-13 05:22N 41°02' W 008°42'0 1.2
2017-Dec-13 05:00N 41°03' W 008°42'0 0.5
2017-Dec-13 04:30N 41°03' W 008°42'0 0.9
2017-Dec-13 03:58N 41°03' W 008°42'1 0.9
2017-Dec-13 02:33N 41°01' W 008°42'0 0.8
2017-Dec-13 02:29N 41°01' W 008°42'1 2.0
2017-Dec-13 02:01N 41°02' W 008°42'0 0.2
2017-Dec-13 01:00N 41°02' W 008°42'1 0.2
2017-Dec-12 19:55N 41°01' W 008°41'0 0.7
2017-Dec-12 19:31N 41°02' W 008°41'0 0.6
2017-Dec-12 18:58N 41°02' W 008°41'0 0.4
2017-Dec-12 18:29N 41°02' W 008°41'0 0.1
2017-Dec-12 16:53N 41°02' W 008°41'0 0.7
2017-Dec-12 16:24N 41°02' W 008°42'0 0.6
2017-Dec-12 16:00N 41°03' W 008°42'1 0.7
2017-Dec-12 14:21N 41°04' W 008°41'2 7.0
2017-Dec-12 14:00N 41°06' W 008°42'3 6.8
2017-Dec-12 13:30N 41°09' W 008°42'  
2017-Dec-07 13:03N 41°11' W 008°42'0 0.0
2017-Dec-07 13:00N 41°11' W 008°42'0 0.0
2017-Dec-07 12:30N 41°11' W 008°42'0 0.0
2017-Dec-07 12:00N 41°11' W 008°42'0 0.2
2017-Dec-07 11:30N 41°11' W 008°42'2 3.7
2017-Dec-07 11:00N 41°10' W 008°44'3 6.4
2017-Dec-07 10:30N 41°08' W 008°47'  
Track history (hours):
 
Tides and Currents Weather Stations Pressure Air Temp Water Temp Dewpoint Dewpoint Depression Visibility Wind Speed Wind Dir Waves Ship Positions

Mestre Silva

Last reported at 2017-Dec-14 04:13 UTC. Time now 2017-Dec-15 10:24 UTC.
Position N 41°11' W 008°42'.

Length 12 m.

Type: Fishing. MMSI: 263420860.

Date/timePositionNaut miles runAvg speedWind from/ knotsBaromVisibWave heightAir tempDewpointWater temp
2017-Dec-14 04:13N 41°11' W 008°42'0 0.4
2017-Dec-14 04:00N 41°11' W 008°42'6 0.7
2017-Dec-13 19:29N 41°05' W 008°41'3 5.3
2017-Dec-13 19:00N 41°08' W 008°42'3 5.1
2017-Dec-13 18:30N 41°10' W 008°42'1 1.3
2017-Dec-13 18:00N 41°11' W 008°42'0 0.0
2017-Dec-13 17:30N 41°11' W 008°42'0 0.0
2017-Dec-13 17:00N 41°11' W 008°42'0 0.0
2017-Dec-13 16:30N 41°11' W 008°42'0 0.0
2017-Dec-13 16:00N 41°11' W 008°42'0 0.0
2017-Dec-13 15:30N 41°11' W 008°42'0 0.0
2017-Dec-13 15:00N 41°11' W 008°42'0 0.0
2017-Dec-13 14:30N 41°11' W 008°42'0 0.0
2017-Dec-13 14:00N 41°11' W 008°42'0 0.0
2017-Dec-13 13:30N 41°11' W 008°42'0 0.1
2017-Dec-13 13:00N 41°11' W 008°42'3 5.3
2017-Dec-13 12:30N 41°08' W 008°42'4 7.2
2017-Dec-13 12:00N 41°05' W 008°41'3 0.8
2017-Dec-13 08:40N 41°02' W 008°42'0 1.3
2017-Dec-13 08:31N 41°02' W 008°42'1 1.2
2017-Dec-13 08:00N 41°03' W 008°42'1 1.3
2017-Dec-13 07:31N 41°02' W 008°42'0 0.1
2017-Dec-13 05:22N 41°02' W 008°42'0 1.2
2017-Dec-13 05:00N 41°03' W 008°42'0 0.5
2017-Dec-13 04:30N 41°03' W 008°42'0 0.9
2017-Dec-13 03:58N 41°03' W 008°42'1 0.9
2017-Dec-13 02:33N 41°01' W 008°42'0 0.8
2017-Dec-13 02:29N 41°01' W 008°42'1 2.0
2017-Dec-13 02:01N 41°02' W 008°42'0 0.2
2017-Dec-13 01:00N 41°02' W 008°42'1 0.2
2017-Dec-12 19:55N 41°01' W 008°41'0 0.7
2017-Dec-12 19:31N 41°02' W 008°41'0 0.6
2017-Dec-12 18:58N 41°02' W 008°41'0 0.4
2017-Dec-12 18:29N 41°02' W 008°41'0 0.1
2017-Dec-12 16:53N 41°02' W 008°41'0 0.7
2017-Dec-12 16:24N 41°02' W 008°42'0 0.6
2017-Dec-12 16:00N 41°03' W 008°42'1 0.7
2017-Dec-12 14:21N 41°04' W 008°41'2 7.0
2017-Dec-12 14:00N 41°06' W 008°42'3 6.8
2017-Dec-12 13:30N 41°09' W 008°42'  
2017-Dec-07 13:03N 41°11' W 008°42'0 0.0
2017-Dec-07 13:00N 41°11' W 008°42'0 0.0
2017-Dec-07 12:30N 41°11' W 008°42'0 0.0
2017-Dec-07 12:00N 41°11' W 008°42'0 0.2
2017-Dec-07 11:30N 41°11' W 008°42'2 3.7
2017-Dec-07 11:00N 41°10' W 008°44'3 6.4
2017-Dec-07 10:30N 41°08' W 008°47'  

Dump ship's entire track history